MSC Maya — 3FNF8 — position and weather

sailwx.info

Track history (hours):
 
Tides and Currents Weather Stations Pressure Air Temp Water Temp Dewpoint Dewpoint Depression Visibility Wind Speed Wind Dir Waves Ship Positions

MSC Maya

Last reported at 2016-Oct-02 15:25 UTC. Time now 2016-Dec-05 18:38 UTC.
Position N 01°16' E 103°46'.
Warning: this ship's position is months out of date.

Length 242 m; draft 8 m.

Type: Cargo ship. MMSI: 351384000.

Date/timePositionNaut miles runAvg speedWind from/ knotsBaromVisibWave heightAir tempDewpointWater temp
2016-Oct-02 15:25N 01°16' E 103°46'0 0.0
2016-Oct-02 14:31N 01°16' E 103°46'7 0.2
2016-Oct-01 04:11N 01°09' E 103°46'811.8
2016-Oct-01 03:31N 01°13' E 103°52'  
2016-Sep-25 17:33N 01°13' E 103°48'4 4.1
2016-Sep-25 16:33N 01°16' E 103°46'0 0.0
2016-Sep-25 15:20N 01°16' E 103°46'0 0.0
2016-Sep-25 14:29N 01°16' E 103°46'0 0.0
2016-Sep-25 10:27N 01°16' E 103°46'0 0.0
2016-Sep-25 09:28N 01°16' E 103°46'0 0.0
2016-Sep-25 07:33N 01°16' E 103°46'0 0.0
2016-Sep-25 04:33N 01°16' E 103°46'16 1.7
2016-Sep-24 19:21N 01°10' E 103°31'1011.6
2016-Sep-24 18:31N 01°20' E 103°33'1 0.2
2016-Sep-24 12:32N 01°21' E 103°33'18 1.7
2016-Sep-24 02:19N 01°10' E 103°47'7 8.4
2016-Sep-24 01:31N 01°13' E 103°54'8 7.7
2016-Sep-24 00:32N 01°16' E 104°01'  
Track history (hours):
 
Tides and Currents Weather Stations Pressure Air Temp Water Temp Dewpoint Dewpoint Depression Visibility Wind Speed Wind Dir Waves Ship Positions

MSC Maya

Last reported at 2016-Oct-02 15:25 UTC. Time now 2016-Dec-05 18:38 UTC.
Position N 01°16' E 103°46'.
Warning: this ship's position is months out of date.

Length 242 m; draft 8 m.

Type: Cargo ship. MMSI: 351384000.

Date/timePositionNaut miles runAvg speedWind from/ knotsBaromVisibWave heightAir tempDewpointWater temp
2016-Oct-02 15:25N 01°16' E 103°46'0 0.0
2016-Oct-02 14:31N 01°16' E 103°46'7 0.2
2016-Oct-01 04:11N 01°09' E 103°46'811.8
2016-Oct-01 03:31N 01°13' E 103°52'  
2016-Sep-25 17:33N 01°13' E 103°48'4 4.1
2016-Sep-25 16:33N 01°16' E 103°46'0 0.0
2016-Sep-25 15:20N 01°16' E 103°46'0 0.0
2016-Sep-25 14:29N 01°16' E 103°46'0 0.0
2016-Sep-25 10:27N 01°16' E 103°46'0 0.0
2016-Sep-25 09:28N 01°16' E 103°46'0 0.0
2016-Sep-25 07:33N 01°16' E 103°46'0 0.0
2016-Sep-25 04:33N 01°16' E 103°46'16 1.7
2016-Sep-24 19:21N 01°10' E 103°31'1011.6
2016-Sep-24 18:31N 01°20' E 103°33'1 0.2
2016-Sep-24 12:32N 01°21' E 103°33'18 1.7
2016-Sep-24 02:19N 01°10' E 103°47'7 8.4
2016-Sep-24 01:31N 01°13' E 103°54'8 7.7
2016-Sep-24 00:32N 01°16' E 104°01'  

Dump ship's entire track history